sensor_id;sensor_type;location;lat;lon;timestamp;P1;durP1;ratioP1;P2;durP2;ratioP2
3663;SDS011;1848;51.042;7.066;2022-11-03T00:01:08;11.70;;;5.23;;
3663;SDS011;1848;51.042;7.066;2022-11-03T00:03:34;11.80;;;6.10;;
3663;SDS011;1848;51.042;7.066;2022-11-03T00:06:01;16.70;;;5.77;;
3663;SDS011;1848;51.042;7.066;2022-11-03T00:08:32;13.73;;;5.47;;
3663;SDS011;1848;51.042;7.066;2022-11-03T00:13:36;9.40;;;5.17;;
3663;SDS011;1848;51.042;7.066;2022-11-03T00:16:04;11.47;;;4.90;;
3663;SDS011;1848;51.042;7.066;2022-11-03T00:18:31;20.23;;;5.43;;
3663;SDS011;1848;51.042;7.066;2022-11-03T00:21:02;15.33;;;5.17;;
3663;SDS011;1848;51.042;7.066;2022-11-03T00:23:30;8.37;;;4.50;;
3663;SDS011;1848;51.042;7.066;2022-11-03T00:26:05;13.17;;;5.10;;
3663;SDS011;1848;51.042;7.066;2022-11-03T00:28:36;11.43;;;5.37;;
3663;SDS011;1848;51.042;7.066;2022-11-03T00:31:08;9.63;;;5.20;;
3663;SDS011;1848;51.042;7.066;2022-11-03T00:33:39;13.07;;;6.30;;
3663;SDS011;1848;51.042;7.066;2022-11-03T00:36:08;15.67;;;5.43;;
3663;SDS011;1848;51.042;7.066;2022-11-03T00:38:36;17.80;;;5.80;;
3663;SDS011;1848;51.042;7.066;2022-11-03T00:41:03;16.07;;;5.63;;
3663;SDS011;1848;51.042;7.066;2022-11-03T00:43:31;8.23;;;5.00;;
3663;SDS011;1848;51.042;7.066;2022-11-03T00:45:59;11.87;;;4.83;;
3663;SDS011;1848;51.042;7.066;2022-11-03T00:48:26;12.80;;;5.10;;
3663;SDS011;1848;51.042;7.066;2022-11-03T00:51:07;13.77;;;5.83;;
3663;SDS011;1848;51.042;7.066;2022-11-03T00:53:34;13.67;;;5.27;;
3663;SDS011;1848;51.042;7.066;2022-11-03T00:56:06;14.57;;;4.93;;
3663;SDS011;1848;51.042;7.066;2022-11-03T00:58:35;13.60;;;5.60;;
3663;SDS011;1848;51.042;7.066;2022-11-03T01:01:03;16.57;;;5.77;;
3663;SDS011;1848;51.042;7.066;2022-11-03T01:03:36;16.60;;;5.40;;
3663;SDS011;1848;51.042;7.066;2022-11-03T01:06:05;12.13;;;6.07;;
3663;SDS011;1848;51.042;7.066;2022-11-03T01:08:51;11.47;;;5.10;;
3663;SDS011;1848;51.042;7.066;2022-11-03T01:11:19;11.13;;;5.93;;
3663;SDS011;1848;51.042;7.066;2022-11-03T01:14:06;10.97;;;5.50;;
3663;SDS011;1848;51.042;7.066;2022-11-03T01:16:33;10.57;;;6.13;;
3663;SDS011;1848;51.042;7.066;2022-11-03T01:19:00;12.10;;;5.83;;
3663;SDS011;1848;51.042;7.066;2022-11-03T01:21:26;14.20;;;5.63;;
3663;SDS011;1848;51.042;7.066;2022-11-03T01:23:53;15.60;;;6.07;;
3663;SDS011;1848;51.042;7.066;2022-11-03T01:26:19;8.83;;;4.70;;
3663;SDS011;1848;51.042;7.066;2022-11-03T01:28:46;13.00;;;5.40;;
3663;SDS011;1848;51.042;7.066;2022-11-03T01:31:17;8.40;;;4.80;;
3663;SDS011;1848;51.042;7.066;2022-11-03T01:33:46;14.80;;;5.40;;
3663;SDS011;1848;51.042;7.066;2022-11-03T01:36:14;11.50;;;5.17;;
3663;SDS011;1848;51.042;7.066;2022-11-03T01:38:42;11.47;;;5.10;;
3663;SDS011;1848;51.042;7.066;2022-11-03T01:41:09;14.27;;;5.80;;
3663;SDS011;1848;51.042;7.066;2022-11-03T01:43:39;11.63;;;5.70;;
3663;SDS011;1848;51.042;7.066;2022-11-03T01:48:36;15.73;;;5.90;;
3663;SDS011;1848;51.042;7.066;2022-11-03T01:51:07;11.60;;;5.43;;
3663;SDS011;1848;51.042;7.066;2022-11-03T01:53:36;12.57;;;5.70;;
3663;SDS011;1848;51.042;7.066;2022-11-03T01:56:07;13.30;;;5.10;;
3663;SDS011;1848;51.042;7.066;2022-11-03T01:58:36;9.83;;;4.50;;
3663;SDS011;1848;51.042;7.066;2022-11-03T02:01:04;9.60;;;5.57;;
3663;SDS011;1848;51.042;7.066;2022-11-03T02:03:34;13.00;;;5.27;;
3663;SDS011;1848;51.042;7.066;2022-11-03T02:06:05;11.10;;;4.90;;
3663;SDS011;1848;51.042;7.066;2022-11-03T02:11:04;9.60;;;4.80;;
3663;SDS011;1848;51.042;7.066;2022-11-03T02:13:50;15.87;;;5.53;;
3663;SDS011;1848;51.042;7.066;2022-11-03T02:16:17;12.20;;;5.47;;
3663;SDS011;1848;51.042;7.066;2022-11-03T02:18:45;13.17;;;4.83;;
3663;SDS011;1848;51.042;7.066;2022-11-03T02:21:22;9.47;;;4.70;;
3663;SDS011;1848;51.042;7.066;2022-11-03T02:24:00;9.23;;;4.83;;
3663;SDS011;1848;51.042;7.066;2022-11-03T02:26:28;11.03;;;4.33;;
3663;SDS011;1848;51.042;7.066;2022-11-03T02:28:55;7.83;;;4.37;;
3663;SDS011;1848;51.042;7.066;2022-11-03T02:31:29;11.93;;;4.70;;
3663;SDS011;1848;51.042;7.066;2022-11-03T02:34:07;15.80;;;5.40;;
3663;SDS011;1848;51.042;7.066;2022-11-03T02:36:58;10.57;;;4.60;;
3663;SDS011;1848;51.042;7.066;2022-11-03T02:39:34;9.30;;;4.50;;
3663;SDS011;1848;51.042;7.066;2022-11-03T02:42:05;8.00;;;4.40;;
3663;SDS011;1848;51.042;7.066;2022-11-03T02:44:33;16.33;;;5.23;;
3663;SDS011;1848;51.042;7.066;2022-11-03T02:47:05;8.77;;;4.83;;
3663;SDS011;1848;51.042;7.066;2022-11-03T02:49:39;12.77;;;4.37;;
3663;SDS011;1848;51.042;7.066;2022-11-03T02:52:29;10.97;;;5.40;;
3663;SDS011;1848;51.042;7.066;2022-11-03T02:55:10;8.77;;;4.60;;
3663;SDS011;1848;51.042;7.066;2022-11-03T02:57:43;12.77;;;4.80;;
3663;SDS011;1848;51.042;7.066;2022-11-03T03:00:15;12.10;;;4.73;;
3663;SDS011;1848;51.042;7.066;2022-11-03T03:05:13;15.80;;;5.07;;
3663;SDS011;1848;51.042;7.066;2022-11-03T03:07:45;8.47;;;4.07;;
3663;SDS011;1848;51.042;7.066;2022-11-03T03:10:18;11.23;;;5.07;;
3663;SDS011;1848;51.042;7.066;2022-11-03T03:12:50;9.30;;;4.70;;
3663;SDS011;1848;51.042;7.066;2022-11-03T03:15:22;9.40;;;4.63;;
3663;SDS011;1848;51.042;7.066;2022-11-03T03:17:59;12.40;;;4.30;;
3663;SDS011;1848;51.042;7.066;2022-11-03T03:20:36;17.60;;;4.70;;
3663;SDS011;1848;51.042;7.066;2022-11-03T03:26:08;10.50;;;5.23;;
3663;SDS011;1848;51.042;7.066;2022-11-03T03:28:42;9.70;;;4.47;;
3663;SDS011;1848;51.042;7.066;2022-11-03T03:31:15;9.00;;;4.40;;
3663;SDS011;1848;51.042;7.066;2022-11-03T03:33:44;18.80;;;5.40;;
3663;SDS011;1848;51.042;7.066;2022-11-03T03:36:14;9.10;;;4.43;;
3663;SDS011;1848;51.042;7.066;2022-11-03T03:38:43;11.27;;;5.03;;
3663;SDS011;1848;51.042;7.066;2022-11-03T03:41:14;9.33;;;4.70;;
3663;SDS011;1848;51.042;7.066;2022-11-03T03:43:50;14.10;;;4.60;;
3663;SDS011;1848;51.042;7.066;2022-11-03T03:46:20;12.10;;;4.90;;
3663;SDS011;1848;51.042;7.066;2022-11-03T03:48:48;7.80;;;4.17;;
3663;SDS011;1848;51.042;7.066;2022-11-03T03:51:15;9.37;;;4.93;;
3663;SDS011;1848;51.042;7.066;2022-11-03T03:53:44;13.00;;;4.47;;
3663;SDS011;1848;51.042;7.066;2022-11-03T03:56:15;12.60;;;4.53;;
3663;SDS011;1848;51.042;7.066;2022-11-03T03:58:42;11.10;;;4.57;;
3663;SDS011;1848;51.042;7.066;2022-11-03T04:01:10;15.77;;;5.13;;
3663;SDS011;1848;51.042;7.066;2022-11-03T04:03:37;12.77;;;4.50;;
3663;SDS011;1848;51.042;7.066;2022-11-03T04:06:04;9.80;;;4.60;;
3663;SDS011;1848;51.042;7.066;2022-11-03T04:08:30;13.77;;;4.53;;
3663;SDS011;1848;51.042;7.066;2022-11-03T04:10:56;8.20;;;4.57;;
3663;SDS011;1848;51.042;7.066;2022-11-03T04:13:41;11.27;;;4.50;;
3663;SDS011;1848;51.042;7.066;2022-11-03T04:16:26;12.60;;;4.53;;
3663;SDS011;1848;51.042;7.066;2022-11-03T04:19:11;11.90;;;4.77;;
3663;SDS011;1848;51.042;7.066;2022-11-03T04:21:56;10.40;;;4.53;;
3663;SDS011;1848;51.042;7.066;2022-11-03T04:24:41;11.57;;;4.63;;
3663;SDS011;1848;51.042;7.066;2022-11-03T04:30:17;10.33;;;5.27;;
3663;SDS011;1848;51.042;7.066;2022-11-03T04:32:45;9.50;;;4.27;;
3663;SDS011;1848;51.042;7.066;2022-11-03T04:35:21;10.93;;;5.03;;
3663;SDS011;1848;51.042;7.066;2022-11-03T04:37:57;10.67;;;5.50;;
3663;SDS011;1848;51.042;7.066;2022-11-03T04:40:27;8.10;;;4.63;;
3663;SDS011;1848;51.042;7.066;2022-11-03T04:42:54;12.23;;;4.90;;
3663;SDS011;1848;51.042;7.066;2022-11-03T04:47:53;10.07;;;5.03;;
3663;SDS011;1848;51.042;7.066;2022-11-03T04:50:21;11.40;;;5.80;;
3663;SDS011;1848;51.042;7.066;2022-11-03T04:52:50;12.60;;;4.80;;
3663;SDS011;1848;51.042;7.066;2022-11-03T04:55:20;11.30;;;4.77;;
3663;SDS011;1848;51.042;7.066;2022-11-03T04:57:48;9.00;;;4.23;;
3663;SDS011;1848;51.042;7.066;2022-11-03T05:00:21;7.87;;;4.20;;
3663;SDS011;1848;51.042;7.066;2022-11-03T05:02:48;12.23;;;4.37;;
3663;SDS011;1848;51.042;7.066;2022-11-03T05:05:22;8.30;;;4.40;;
3663;SDS011;1848;51.042;7.066;2022-11-03T05:07:51;9.10;;;4.30;;
3663;SDS011;1848;51.042;7.066;2022-11-03T05:10:25;12.10;;;4.77;;
3663;SDS011;1848;51.042;7.066;2022-11-03T05:12:54;11.03;;;4.27;;
3663;SDS011;1848;51.042;7.066;2022-11-03T05:17:55;15.57;;;5.10;;
3663;SDS011;1848;51.042;7.066;2022-11-03T05:20:31;11.37;;;4.47;;
3663;SDS011;1848;51.042;7.066;2022-11-03T05:23:02;8.60;;;5.30;;
3663;SDS011;1848;51.042;7.066;2022-11-03T05:25:33;12.33;;;4.67;;
3663;SDS011;1848;51.042;7.066;2022-11-03T05:28:04;7.77;;;4.30;;
3663;SDS011;1848;51.042;7.066;2022-11-03T05:30:38;11.47;;;4.90;;
3663;SDS011;1848;51.042;7.066;2022-11-03T05:33:17;14.90;;;5.03;;
3663;SDS011;1848;51.042;7.066;2022-11-03T05:35:46;10.57;;;4.23;;
3663;SDS011;1848;51.042;7.066;2022-11-03T05:38:14;8.93;;;4.70;;
3663;SDS011;1848;51.042;7.066;2022-11-03T05:40:41;7.77;;;4.03;;
3663;SDS011;1848;51.042;7.066;2022-11-03T05:43:08;12.10;;;5.37;;
3663;SDS011;1848;51.042;7.066;2022-11-03T05:45:38;11.20;;;4.83;;
3663;SDS011;1848;51.042;7.066;2022-11-03T05:48:50;11.23;;;4.57;;
3663;SDS011;1848;51.042;7.066;2022-11-03T05:51:09;12.07;;;5.17;;
3663;SDS011;1848;51.042;7.066;2022-11-03T05:53:44;14.80;;;4.50;;
3663;SDS011;1848;51.042;7.066;2022-11-03T05:56:15;9.67;;;3.97;;
3663;SDS011;1848;51.042;7.066;2022-11-03T05:58:44;10.83;;;4.47;;
3663;SDS011;1848;51.042;7.066;2022-11-03T06:01:12;9.50;;;4.80;;
3663;SDS011;1848;51.042;7.066;2022-11-03T06:03:53;10.03;;;3.97;;
3663;SDS011;1848;51.042;7.066;2022-11-03T06:06:24;13.63;;;4.40;;
3663;SDS011;1848;51.042;7.066;2022-11-03T06:08:58;14.60;;;4.53;;
3663;SDS011;1848;51.042;7.066;2022-11-03T06:11:30;8.00;;;3.90;;
3663;SDS011;1848;51.042;7.066;2022-11-03T06:14:00;10.70;;;4.30;;
3663;SDS011;1848;51.042;7.066;2022-11-03T06:16:31;11.10;;;4.47;;
3663;SDS011;1848;51.042;7.066;2022-11-03T06:19:19;13.40;;;4.30;;
3663;SDS011;1848;51.042;7.066;2022-11-03T06:22:14;11.53;;;4.37;;
3663;SDS011;1848;51.042;7.066;2022-11-03T06:24:45;16.37;;;4.73;;
3663;SDS011;1848;51.042;7.066;2022-11-03T06:27:13;12.60;;;4.60;;
3663;SDS011;1848;51.042;7.066;2022-11-03T06:29:45;6.70;;;4.17;;
3663;SDS011;1848;51.042;7.066;2022-11-03T06:32:16;9.47;;;4.80;;
3663;SDS011;1848;51.042;7.066;2022-11-03T06:34:45;13.13;;;4.20;;
3663;SDS011;1848;51.042;7.066;2022-11-03T06:37:20;9.07;;;4.27;;
3663;SDS011;1848;51.042;7.066;2022-11-03T06:39:49;10.07;;;4.30;;
3663;SDS011;1848;51.042;7.066;2022-11-03T06:42:19;10.83;;;4.47;;
3663;SDS011;1848;51.042;7.066;2022-11-03T06:44:49;11.27;;;4.70;;
3663;SDS011;1848;51.042;7.066;2022-11-03T06:47:24;21.83;;;5.67;;
3663;SDS011;1848;51.042;7.066;2022-11-03T06:49:52;12.10;;;4.60;;
3663;SDS011;1848;51.042;7.066;2022-11-03T06:52:23;9.20;;;4.50;;
3663;SDS011;1848;51.042;7.066;2022-11-03T06:54:53;13.00;;;4.20;;
3663;SDS011;1848;51.042;7.066;2022-11-03T06:57:24;9.07;;;4.43;;
3663;SDS011;1848;51.042;7.066;2022-11-03T06:59:51;11.63;;;4.70;;
3663;SDS011;1848;51.042;7.066;2022-11-03T07:05:25;8.67;;;4.70;;
3663;SDS011;1848;51.042;7.066;2022-11-03T07:07:54;14.80;;;3.93;;
3663;SDS011;1848;51.042;7.066;2022-11-03T07:10:27;10.00;;;4.90;;
3663;SDS011;1848;51.042;7.066;2022-11-03T07:13:05;10.67;;;4.63;;
3663;SDS011;1848;51.042;7.066;2022-11-03T07:15:39;8.10;;;4.00;;
3663;SDS011;1848;51.042;7.066;2022-11-03T07:18:29;6.83;;;3.90;;
3663;SDS011;1848;51.042;7.066;2022-11-03T07:21:01;9.77;;;4.43;;
3663;SDS011;1848;51.042;7.066;2022-11-03T07:23:32;9.90;;;4.17;;
3663;SDS011;1848;51.042;7.066;2022-11-03T07:25:59;18.17;;;5.00;;
3663;SDS011;1848;51.042;7.066;2022-11-03T07:28:34;9.67;;;4.63;;
3663;SDS011;1848;51.042;7.066;2022-11-03T07:31:37;7.20;;;3.27;;
3663;SDS011;1848;51.042;7.066;2022-11-03T07:33:56;9.97;;;4.30;;
3663;SDS011;1848;51.042;7.066;2022-11-03T07:36:24;10.30;;;4.70;;
3663;SDS011;1848;51.042;7.066;2022-11-03T07:38:55;9.63;;;4.70;;
3663;SDS011;1848;51.042;7.066;2022-11-03T07:41:25;7.97;;;4.00;;
3663;SDS011;1848;51.042;7.066;2022-11-03T07:44:00;11.90;;;4.27;;
3663;SDS011;1848;51.042;7.066;2022-11-03T07:46:27;8.60;;;4.37;;
3663;SDS011;1848;51.042;7.066;2022-11-03T07:48:54;17.10;;;4.67;;
3663;SDS011;1848;51.042;7.066;2022-11-03T07:51:23;10.10;;;4.10;;
3663;SDS011;1848;51.042;7.066;2022-11-03T07:54:14;9.10;;;3.97;;
3663;SDS011;1848;51.042;7.066;2022-11-03T07:56:45;10.60;;;5.10;;
3663;SDS011;1848;51.042;7.066;2022-11-03T07:59:19;12.50;;;4.20;;
3663;SDS011;1848;51.042;7.066;2022-11-03T08:01:50;12.13;;;4.10;;
3663;SDS011;1848;51.042;7.066;2022-11-03T08:04:23;9.57;;;5.10;;
3663;SDS011;1848;51.042;7.066;2022-11-03T08:06:51;9.80;;;4.43;;
3663;SDS011;1848;51.042;7.066;2022-11-03T08:09:17;11.40;;;4.03;;
3663;SDS011;1848;51.042;7.066;2022-11-03T08:11:44;12.87;;;4.37;;
3663;SDS011;1848;51.042;7.066;2022-11-03T08:14:11;8.17;;;4.60;;
3663;SDS011;1848;51.042;7.066;2022-11-03T08:16:38;8.57;;;4.10;;
3663;SDS011;1848;51.042;7.066;2022-11-03T08:19:05;12.23;;;4.40;;
3663;SDS011;1848;51.042;7.066;2022-11-03T08:21:32;10.20;;;4.00;;
3663;SDS011;1848;51.042;7.066;2022-11-03T08:23:58;10.73;;;4.03;;
3663;SDS011;1848;51.042;7.066;2022-11-03T08:26:25;11.33;;;4.00;;
3663;SDS011;1848;51.042;7.066;2022-11-03T08:28:51;10.03;;;3.73;;
3663;SDS011;1848;51.042;7.066;2022-11-03T08:31:18;9.10;;;3.60;;
3663;SDS011;1848;51.042;7.066;2022-11-03T08:33:44;11.27;;;4.07;;
3663;SDS011;1848;51.042;7.066;2022-11-03T08:36:11;7.27;;;4.20;;
3663;SDS011;1848;51.042;7.066;2022-11-03T08:38:37;13.80;;;4.43;;
3663;SDS011;1848;51.042;7.066;2022-11-03T08:41:03;14.53;;;3.70;;
3663;SDS011;1848;51.042;7.066;2022-11-03T08:43:30;11.30;;;4.30;;
3663;SDS011;1848;51.042;7.066;2022-11-03T08:45:56;13.17;;;4.37;;
3663;SDS011;1848;51.042;7.066;2022-11-03T08:48:38;13.47;;;4.23;;
3663;SDS011;1848;51.042;7.066;2022-11-03T08:51:05;8.70;;;3.50;;
3663;SDS011;1848;51.042;7.066;2022-11-03T08:53:33;10.77;;;3.20;;
3663;SDS011;1848;51.042;7.066;2022-11-03T08:56:00;7.30;;;3.60;;
3663;SDS011;1848;51.042;7.066;2022-11-03T08:58:26;12.77;;;4.20;;
3663;SDS011;1848;51.042;7.066;2022-11-03T09:00:53;8.20;;;3.47;;
3663;SDS011;1848;51.042;7.066;2022-11-03T09:03:19;13.10;;;3.90;;
3663;SDS011;1848;51.042;7.066;2022-11-03T09:05:45;8.57;;;3.90;;
3663;SDS011;1848;51.042;7.066;2022-11-03T09:08:12;8.90;;;3.60;;
3663;SDS011;1848;51.042;7.066;2022-11-03T09:10:58;13.33;;;4.07;;
3663;SDS011;1848;51.042;7.066;2022-11-03T09:13:24;9.13;;;3.67;;
3663;SDS011;1848;51.042;7.066;2022-11-03T09:15:51;8.33;;;3.50;;
3663;SDS011;1848;51.042;7.066;2022-11-03T09:18:17;10.87;;;3.50;;
3663;SDS011;1848;51.042;7.066;2022-11-03T09:20:44;7.07;;;3.60;;
3663;SDS011;1848;51.042;7.066;2022-11-03T09:23:10;11.33;;;3.67;;
3663;SDS011;1848;51.042;7.066;2022-11-03T09:25:36;8.13;;;3.47;;
3663;SDS011;1848;51.042;7.066;2022-11-03T09:28:03;8.30;;;3.43;;
3663;SDS011;1848;51.042;7.066;2022-11-03T09:30:30;10.10;;;3.20;;
3663;SDS011;1848;51.042;7.066;2022-11-03T09:32:57;11.33;;;3.60;;
3663;SDS011;1848;51.042;7.066;2022-11-03T09:35:23;9.40;;;3.63;;
3663;SDS011;1848;51.042;7.066;2022-11-03T09:37:49;6.73;;;2.77;;
3663;SDS011;1848;51.042;7.066;2022-11-03T09:40:16;9.57;;;3.33;;
3663;SDS011;1848;51.042;7.066;2022-11-03T09:42:42;8.20;;;3.43;;
3663;SDS011;1848;51.042;7.066;2022-11-03T09:45:10;10.97;;;3.67;;
3663;SDS011;1848;51.042;7.066;2022-11-03T09:47:39;7.13;;;3.20;;
3663;SDS011;1848;51.042;7.066;2022-11-03T09:50:12;10.00;;;3.40;;
3663;SDS011;1848;51.042;7.066;2022-11-03T09:52:41;8.67;;;3.57;;
3663;SDS011;1848;51.042;7.066;2022-11-03T09:55:16;11.97;;;4.17;;
3663;SDS011;1848;51.042;7.066;2022-11-03T09:57:46;14.70;;;3.60;;
3663;SDS011;1848;51.042;7.066;2022-11-03T10:00:20;7.20;;;3.40;;
3663;SDS011;1848;51.042;7.066;2022-11-03T10:02:48;11.07;;;3.50;;
3663;SDS011;1848;51.042;7.066;2022-11-03T10:05:18;9.40;;;3.40;;
3663;SDS011;1848;51.042;7.066;2022-11-03T10:07:49;6.90;;;3.47;;
3663;SDS011;1848;51.042;7.066;2022-11-03T10:10:18;10.20;;;3.40;;
3663;SDS011;1848;51.042;7.066;2022-11-03T10:12:47;8.77;;;3.50;;
3663;SDS011;1848;51.042;7.066;2022-11-03T10:15:15;9.63;;;3.63;;
3663;SDS011;1848;51.042;7.066;2022-11-03T10:17:43;7.80;;;3.20;;
3663;SDS011;1848;51.042;7.066;2022-11-03T10:20:14;8.60;;;4.20;;
3663;SDS011;1848;51.042;7.066;2022-11-03T10:22:42;7.27;;;3.23;;
3663;SDS011;1848;51.042;7.066;2022-11-03T10:25:23;17.33;;;3.97;;
3663;SDS011;1848;51.042;7.066;2022-11-03T10:28:24;7.93;;;3.60;;
3663;SDS011;1848;51.042;7.066;2022-11-03T10:30:57;5.60;;;2.80;;
3663;SDS011;1848;51.042;7.066;2022-11-03T10:33:52;11.63;;;3.47;;
3663;SDS011;1848;51.042;7.066;2022-11-03T10:36:24;8.13;;;3.60;;
3663;SDS011;1848;51.042;7.066;2022-11-03T10:38:52;8.13;;;3.53;;
3663;SDS011;1848;51.042;7.066;2022-11-03T10:41:26;7.07;;;3.33;;
3663;SDS011;1848;51.042;7.066;2022-11-03T10:49:24;10.60;;;3.97;;
3663;SDS011;1848;51.042;7.066;2022-11-03T10:51:51;13.10;;;3.77;;
3663;SDS011;1848;51.042;7.066;2022-11-03T10:54:20;10.50;;;2.90;;
3663;SDS011;1848;51.042;7.066;2022-11-03T10:56:48;9.93;;;3.37;;
3663;SDS011;1848;51.042;7.066;2022-11-03T10:59:32;8.87;;;3.70;;
3663;SDS011;1848;51.042;7.066;2022-11-03T11:02:02;7.50;;;3.20;;
3663;SDS011;1848;51.042;7.066;2022-11-03T11:04:30;9.00;;;3.50;;
3663;SDS011;1848;51.042;7.066;2022-11-03T11:06:57;16.37;;;3.97;;
3663;SDS011;1848;51.042;7.066;2022-11-03T11:09:24;5.90;;;3.00;;
3663;SDS011;1848;51.042;7.066;2022-11-03T11:17:04;7.00;;;3.33;;
3663;SDS011;1848;51.042;7.066;2022-11-03T11:20:16;5.77;;;2.90;;
3663;SDS011;1848;51.042;7.066;2022-11-03T11:22:44;8.07;;;3.60;;
3663;SDS011;1848;51.042;7.066;2022-11-03T11:25:10;11.07;;;3.80;;
3663;SDS011;1848;51.042;7.066;2022-11-03T11:30:07;7.93;;;3.33;;
3663;SDS011;1848;51.042;7.066;2022-11-03T11:32:59;6.10;;;3.07;;
3663;SDS011;1848;51.042;7.066;2022-11-03T11:41:14;7.53;;;3.20;;
3663;SDS011;1848;51.042;7.066;2022-11-03T11:43:40;9.00;;;3.60;;
3663;SDS011;1848;51.042;7.066;2022-11-03T11:49:34;8.43;;;3.17;;
3663;SDS011;1848;51.042;7.066;2022-11-03T11:51:35;7.07;;;3.00;;
3663;SDS011;1848;51.042;7.066;2022-11-03T11:54:03;8.30;;;3.43;;
3663;SDS011;1848;51.042;7.066;2022-11-03T11:56:44;7.47;;;3.10;;
3663;SDS011;1848;51.042;7.066;2022-11-03T11:59:20;7.77;;;3.67;;
3663;SDS011;1848;51.042;7.066;2022-11-03T12:01:52;5.67;;;3.30;;
3663;SDS011;1848;51.042;7.066;2022-11-03T12:04:24;7.00;;;3.13;;
3663;SDS011;1848;51.042;7.066;2022-11-03T12:06:54;5.63;;;3.40;;
3663;SDS011;1848;51.042;7.066;2022-11-03T12:09:22;9.17;;;4.90;;
3663;SDS011;1848;51.042;7.066;2022-11-03T12:11:51;9.93;;;4.10;;
3663;SDS011;1848;51.042;7.066;2022-11-03T12:16:54;7.60;;;3.13;;
3663;SDS011;1848;51.042;7.066;2022-11-03T12:19:38;9.87;;;3.73;;
3663;SDS011;1848;51.042;7.066;2022-11-03T12:24:47;5.77;;;3.10;;
3663;SDS011;1848;51.042;7.066;2022-11-03T12:32:17;4.43;;;3.07;;
3663;SDS011;1848;51.042;7.066;2022-11-03T12:34:59;7.57;;;3.60;;
3663;SDS011;1848;51.042;7.066;2022-11-03T12:37:25;8.00;;;3.30;;
3663;SDS011;1848;51.042;7.066;2022-11-03T12:39:52;7.67;;;3.40;;
3663;SDS011;1848;51.042;7.066;2022-11-03T12:42:18;11.17;;;3.30;;
3663;SDS011;1848;51.042;7.066;2022-11-03T12:44:46;7.67;;;3.30;;
3663;SDS011;1848;51.042;7.066;2022-11-03T12:47:12;5.33;;;3.30;;
3663;SDS011;1848;51.042;7.066;2022-11-03T12:49:38;7.10;;;3.53;;
3663;SDS011;1848;51.042;7.066;2022-11-03T12:52:04;7.47;;;3.60;;
3663;SDS011;1848;51.042;7.066;2022-11-03T12:54:33;7.30;;;3.27;;
3663;SDS011;1848;51.042;7.066;2022-11-03T12:57:00;6.80;;;3.40;;
3663;SDS011;1848;51.042;7.066;2022-11-03T12:59:26;5.43;;;3.40;;
3663;SDS011;1848;51.042;7.066;2022-11-03T13:01:53;5.00;;;3.00;;
3663;SDS011;1848;51.042;7.066;2022-11-03T13:04:19;5.13;;;3.03;;
3663;SDS011;1848;51.042;7.066;2022-11-03T13:06:46;4.60;;;3.30;;
3663;SDS011;1848;51.042;7.066;2022-11-03T13:09:12;10.97;;;3.93;;
3663;SDS011;1848;51.042;7.066;2022-11-03T13:11:38;6.20;;;3.10;;
3663;SDS011;1848;51.042;7.066;2022-11-03T13:14:23;5.37;;;3.30;;
3663;SDS011;1848;51.042;7.066;2022-11-03T13:16:51;5.27;;;3.50;;
3663;SDS011;1848;51.042;7.066;2022-11-03T13:19:17;9.37;;;4.67;;
3663;SDS011;1848;51.042;7.066;2022-11-03T13:21:44;8.90;;;3.60;;
3663;SDS011;1848;51.042;7.066;2022-11-03T13:24:10;6.70;;;3.70;;
3663;SDS011;1848;51.042;7.066;2022-11-03T13:26:36;8.03;;;3.80;;
3663;SDS011;1848;51.042;7.066;2022-11-03T13:29:03;8.70;;;3.60;;
3663;SDS011;1848;51.042;7.066;2022-11-03T13:31:29;8.97;;;3.60;;
3663;SDS011;1848;51.042;7.066;2022-11-03T13:33:56;8.33;;;3.50;;
3663;SDS011;1848;51.042;7.066;2022-11-03T13:36:22;8.40;;;4.67;;
3663;SDS011;1848;51.042;7.066;2022-11-03T13:38:49;8.00;;;3.37;;
3663;SDS011;1848;51.042;7.066;2022-11-03T13:41:15;6.60;;;3.67;;
3663;SDS011;1848;51.042;7.066;2022-11-03T13:43:41;6.20;;;3.73;;
3663;SDS011;1848;51.042;7.066;2022-11-03T13:46:08;8.93;;;3.67;;
3663;SDS011;1848;51.042;7.066;2022-11-03T13:48:34;8.00;;;4.20;;
3663;SDS011;1848;51.042;7.066;2022-11-03T13:51:20;5.00;;;4.07;;
3663;SDS011;1848;51.042;7.066;2022-11-03T13:53:47;5.80;;;3.50;;
3663;SDS011;1848;51.042;7.066;2022-11-03T13:56:33;6.80;;;4.23;;
3663;SDS011;1848;51.042;7.066;2022-11-03T13:59:19;5.33;;;3.67;;
3663;SDS011;1848;51.042;7.066;2022-11-03T14:01:47;11.90;;;3.87;;
3663;SDS011;1848;51.042;7.066;2022-11-03T14:04:33;9.40;;;3.93;;
3663;SDS011;1848;51.042;7.066;2022-11-03T14:07:08;7.10;;;4.07;;
3663;SDS011;1848;51.042;7.066;2022-11-03T14:09:34;8.60;;;4.20;;
3663;SDS011;1848;51.042;7.066;2022-11-03T14:12:02;7.80;;;4.13;;
3663;SDS011;1848;51.042;7.066;2022-11-03T14:14:47;7.17;;;4.30;;
3663;SDS011;1848;51.042;7.066;2022-11-03T14:17:13;7.20;;;4.00;;
3663;SDS011;1848;51.042;7.066;2022-11-03T14:19:40;10.90;;;4.53;;
3663;SDS011;1848;51.042;7.066;2022-11-03T14:22:12;8.93;;;4.07;;
3663;SDS011;1848;51.042;7.066;2022-11-03T14:24:38;4.57;;;3.97;;
3663;SDS011;1848;51.042;7.066;2022-11-03T14:27:05;5.60;;;3.27;;
3663;SDS011;1848;51.042;7.066;2022-11-03T14:29:31;6.30;;;3.37;;
3663;SDS011;1848;51.042;7.066;2022-11-03T14:31:57;6.57;;;3.50;;
3663;SDS011;1848;51.042;7.066;2022-11-03T14:34:24;8.30;;;3.80;;
3663;SDS011;1848;51.042;7.066;2022-11-03T14:36:51;6.30;;;3.67;;
3663;SDS011;1848;51.042;7.066;2022-11-03T14:39:17;7.03;;;4.40;;
3663;SDS011;1848;51.042;7.066;2022-11-03T14:41:44;8.43;;;3.60;;
3663;SDS011;1848;51.042;7.066;2022-11-03T14:44:32;6.70;;;4.33;;
3663;SDS011;1848;51.042;7.066;2022-11-03T14:47:00;4.07;;;3.67;;
3663;SDS011;1848;51.042;7.066;2022-11-03T14:49:29;5.03;;;3.60;;
3663;SDS011;1848;51.042;7.066;2022-11-03T14:51:56;8.17;;;4.90;;
3663;SDS011;1848;51.042;7.066;2022-11-03T14:54:24;9.27;;;4.90;;
3663;SDS011;1848;51.042;7.066;2022-11-03T14:56:51;7.10;;;4.77;;
3663;SDS011;1848;51.042;7.066;2022-11-03T14:59:17;8.17;;;4.97;;
3663;SDS011;1848;51.042;7.066;2022-11-03T15:01:44;8.83;;;5.13;;
3663;SDS011;1848;51.042;7.066;2022-11-03T15:04:11;8.00;;;4.97;;
3663;SDS011;1848;51.042;7.066;2022-11-03T15:06:39;6.53;;;4.33;;
3663;SDS011;1848;51.042;7.066;2022-11-03T15:09:06;8.00;;;4.57;;
3663;SDS011;1848;51.042;7.066;2022-11-03T15:11:34;7.90;;;4.70;;
3663;SDS011;1848;51.042;7.066;2022-11-03T15:14:00;8.37;;;4.83;;
3663;SDS011;1848;51.042;7.066;2022-11-03T15:16:27;9.87;;;5.40;;
3663;SDS011;1848;51.042;7.066;2022-11-03T15:18:54;8.47;;;5.60;;
3663;SDS011;1848;51.042;7.066;2022-11-03T15:21:20;6.60;;;4.60;;
3663;SDS011;1848;51.042;7.066;2022-11-03T15:23:46;5.63;;;4.17;;
3663;SDS011;1848;51.042;7.066;2022-11-03T15:26:33;8.80;;;5.43;;
3663;SDS011;1848;51.042;7.066;2022-11-03T15:28:59;6.30;;;5.03;;
3663;SDS011;1848;51.042;7.066;2022-11-03T15:31:25;10.30;;;5.60;;
3663;SDS011;1848;51.042;7.066;2022-11-03T15:33:52;5.90;;;5.13;;
3663;SDS011;1848;51.042;7.066;2022-11-03T15:36:18;10.07;;;5.00;;
3663;SDS011;1848;51.042;7.066;2022-11-03T15:38:45;7.67;;;5.37;;
3663;SDS011;1848;51.042;7.066;2022-11-03T15:41:12;7.70;;;5.73;;
3663;SDS011;1848;51.042;7.066;2022-11-03T15:43:45;17.67;;;5.80;;
3663;SDS011;1848;51.042;7.066;2022-11-03T15:46:14;6.10;;;5.30;;
3663;SDS011;1848;51.042;7.066;2022-11-03T15:48:42;9.20;;;5.17;;
3663;SDS011;1848;51.042;7.066;2022-11-03T15:51:09;8.30;;;5.93;;
3663;SDS011;1848;51.042;7.066;2022-11-03T15:53:37;7.80;;;5.10;;
3663;SDS011;1848;51.042;7.066;2022-11-03T15:56:04;13.23;;;9.37;;
3663;SDS011;1848;51.042;7.066;2022-11-03T15:58:30;8.20;;;5.37;;
3663;SDS011;1848;51.042;7.066;2022-11-03T16:01:00;10.40;;;6.20;;
3663;SDS011;1848;51.042;7.066;2022-11-03T16:03:27;6.33;;;5.20;;
3663;SDS011;1848;51.042;7.066;2022-11-03T16:05:54;10.47;;;5.87;;
3663;SDS011;1848;51.042;7.066;2022-11-03T16:08:20;9.67;;;5.20;;
3663;SDS011;1848;51.042;7.066;2022-11-03T16:10:46;8.40;;;5.30;;
3663;SDS011;1848;51.042;7.066;2022-11-03T16:13:22;7.60;;;6.00;;
3663;SDS011;1848;51.042;7.066;2022-11-03T16:15:50;12.27;;;6.57;;
3663;SDS011;1848;51.042;7.066;2022-11-03T16:18:16;10.23;;;6.20;;
3663;SDS011;1848;51.042;7.066;2022-11-03T16:20:43;9.60;;;6.20;;
3663;SDS011;1848;51.042;7.066;2022-11-03T16:23:09;9.20;;;5.50;;
3663;SDS011;1848;51.042;7.066;2022-11-03T16:25:36;5.87;;;5.13;;
3663;SDS011;1848;51.042;7.066;2022-11-03T16:28:02;8.53;;;5.73;;